ITO weather

Hilo International Airport
Hilo, Hawaii, United States

Public forecast

Using degrees Fahrenheit for public forecast. Weather courtesy of forecast.io.

Current aviation weather report (METAR) for Hilo International Airport

Retrieved 2019/10/21 21:53 UTC (35 minutes ago):

PHTO 212153Z 28007KT 10SM FEW025 FEW070 28/22 A3001

Aviation forecast (TAF) for Hilo International Airport

Retrieved 2019/10/21 18:45 UTC (4 hours ago):

TAF PHTO 211742Z 2118/2218 25007KT 4SM -SHRA BR BKN015 OVC025 FM212100 09008KT 6SM -SHRA BR SCT020 OVC030 FM220500 23005KT 4SM -SHRA BR BKN015 OVC025